Time;durP1;ratioP1;P1;durP2;ratioP2;P2;SDS_P1;SDS_P2;PMS_P1;PMS_P2;Temp;Humidity;BMP_temperature;BMP_pressure;BME280_temperature;BME280_humidity;BME280_pressure;Samples;Min_cycle;Max_cycle;Signal;HPM_P1;HPM_P2
2021/03/21 00:00:44;;;;;;;9.32;4.95;;;;;;;;;;4986917;28;20050;-58
2021/03/21 00:03:10;;;;;;;4.43;3.30;;;;;;;;;;4992256;28;20026;-58
2021/03/21 00:05:35;;;;;;;5.68;2.65;;;;;;;;;;4985397;28;20038;-59
2021/03/21 00:08:02;;;;;;;16.33;3.38;;;;;;;;;;4991407;28;20069;-58
2021/03/21 00:10:29;;;;;;;20.25;5.20;;;;;;;;;;4987981;28;20109;-58
2021/03/21 00:12:54;;;;;;;14.23;4.38;;;;;;;;;;4992159;28;20156;-58
2021/03/21 00:15:20;;;;;;;16.27;4.00;;;;;;;;;;4989245;28;20117;-58
2021/03/21 00:17:45;;;;;;;13.20;2.58;;;;;;;;;;4985761;28;20050;-58
2021/03/21 00:20:12;;;;;;;7.28;2.28;;;;;;;;;;4991980;28;20033;-58
2021/03/21 00:22:37;;;;;;;2.88;1.58;;;;;;;;;;4991847;28;20045;-57
2021/03/21 00:25:05;;;;;;;14.18;4.18;;;;;;;;;;4992047;28;20373;-58
2021/03/21 00:27:30;;;;;;;2.67;1.48;;;;;;;;;;4991624;28;20026;-58
2021/03/21 00:29:55;;;;;;;9.10;2.10;;;;;;;;;;4992290;28;20030;-59
2021/03/21 00:32:21;;;;;;;13.20;2.60;;;;;;;;;;4990173;28;20019;-59
2021/03/21 00:34:46;;;;;;;12.40;4.10;;;;;;;;;;4988022;28;20034;-59
2021/03/21 00:37:11;;;;;;;11.88;3.47;;;;;;;;;;4991721;28;20048;-58
2021/03/21 00:39:37;;;;;;;3.33;1.20;;;;;;;;;;4989531;28;20373;-59
2021/03/21 00:42:02;;;;;;;6.32;1.35;;;;;;;;;;4991855;28;20025;-59
2021/03/21 00:44:27;;;;;;;7.18;2.50;;;;;;;;;;4991550;28;20026;-58
2021/03/21 00:46:53;;;;;;;7.65;3.15;;;;;;;;;;4991821;28;20027;-58
2021/03/21 00:49:18;;;;;;;9.98;2.55;;;;;;;;;;4991463;28;20030;-58
2021/03/21 00:51:43;;;;;;;4.07;2.65;;;;;;;;;;4981442;28;20085;-59
2021/03/21 00:54:09;;;;;;;4.28;2.67;;;;;;;;;;4991817;28;20018;-58
2021/03/21 00:56:36;;;;;;;12.40;4.80;;;;;;;;;;4991523;28;20141;-59
2021/03/21 00:59:02;;;;;;;5.85;3.00;;;;;;;;;;4991828;28;20093;-58
2021/03/21 01:01:30;;;;;;;4.50;2.28;;;;;;;;;;4989987;28;20495;-58
2021/03/21 01:03:55;;;;;;;5.75;3.15;;;;;;;;;;4991756;28;20401;-58
2021/03/21 01:06:20;;;;;;;16.00;2.22;;;;;;;;;;4989913;28;20030;-58
2021/03/21 01:08:46;;;;;;;4.93;2.65;;;;;;;;;;4983571;28;20022;-58
2021/03/21 01:11:19;;;;;;;5.80;2.45;;;;;;;;;;4988484;28;20113;-58
2021/03/21 01:13:44;;;;;;;4.32;2.72;;;;;;;;;;4992187;28;20029;-58
2021/03/21 01:16:13;;;;;;;11.82;3.60;;;;;;;;;;4970548;28;20030;-58
2021/03/21 01:18:39;;;;;;;5.82;1.48;;;;;;;;;;4995131;28;20034;-58
2021/03/21 01:21:05;;;;;;;8.93;3.13;;;;;;;;;;4992687;28;20029;-58
2021/03/21 01:23:30;;;;;;;4.57;2.30;;;;;;;;;;4989668;28;20756;-58
2021/03/21 01:25:56;;;;;;;7.53;2.70;;;;;;;;;;4994782;28;20033;-58
2021/03/21 01:28:23;;;;;;;9.35;3.22;;;;;;;;;;4986290;28;20026;-58
2021/03/21 01:30:48;;;;;;;5.05;2.25;;;;;;;;;;4989121;28;20462;-57
2021/03/21 01:33:14;;;;;;;7.35;2.08;;;;;;;;;;4992359;28;20030;-58
2021/03/21 01:35:39;;;;;;;16.48;3.75;;;;;;;;;;4988742;28;20956;-58
2021/03/21 01:38:04;;;;;;;6.35;2.85;;;;;;;;;;4991251;28;20033;-58
2021/03/21 01:40:30;;;;;;;11.27;3.13;;;;;;;;;;4992417;28;20041;-58
2021/03/21 01:42:55;;;;;;;4.93;2.35;;;;;;;;;;4993404;28;20116;-59
2021/03/21 01:45:28;;;;;;;3.88;2.88;;;;;;;;;;4994908;28;20109;-58
2021/03/21 01:47:57;;;;;;;3.85;2.70;;;;;;;;;;4994582;28;20505;-59
2021/03/21 01:50:26;;;;;;;8.63;1.10;;;;;;;;;;4995445;28;20035;-58
2021/03/21 01:52:51;;;;;;;4.97;2.88;;;;;;;;;;4995260;28;20362;-58
2021/03/21 01:55:17;;;;;;;8.60;2.92;;;;;;;;;;4995272;28;20026;-58
2021/03/21 01:57:44;;;;;;;1.67;1.00;;;;;;;;;;4994730;28;20026;-58
2021/03/21 02:00:10;;;;;;;6.90;3.13;;;;;;;;;;4995132;28;20109;-58
2021/03/21 02:02:35;;;;;;;5.10;2.70;;;;;;;;;;4992200;28;20142;-58
2021/03/21 02:05:01;;;;;;;5.80;2.80;;;;;;;;;;4992927;28;20109;-58
2021/03/21 02:07:35;;;;;;;3.95;2.45;;;;;;;;;;4992334;28;20022;-65
2021/03/21 02:10:19;;;;;;;45.60;4.68;;;;;;;;;;4995287;28;20022;-66
2021/03/21 02:12:51;;;;;;;1.33;0.68;;;;;;;;;;4977472;28;20054;-65
2021/03/21 02:15:24;;;;;;;8.82;2.40;;;;;;;;;;4992515;28;20438;-65
2021/03/21 02:18:24;;;;;;;9.88;3.05;;;;;;;;;;4991942;28;20045;-65
2021/03/21 02:20:58;;;;;;;4.03;1.40;;;;;;;;;;4934973;29;20144;-65
2021/03/21 02:23:42;;;;;;;13.73;3.17;;;;;;;;;;4983248;28;20489;-65
2021/03/21 02:26:11;;;;;;;24.08;5.20;;;;;;;;;;4995296;28;20023;-66
2021/03/21 02:28:55;;;;;;;12.05;2.05;;;;;;;;;;4994718;28;20030;-65
2021/03/21 02:31:24;;;;;;;14.60;3.60;;;;;;;;;;4993612;28;20026;-65
2021/03/21 02:33:56;;;;;;;6.45;2.58;;;;;;;;;;4994725;28;20109;-65
2021/03/21 02:36:24;;;;;;;8.95;2.38;;;;;;;;;;4994511;28;20393;-65
2021/03/21 02:38:58;;;;;;;3.20;2.33;;;;;;;;;;4994826;28;20030;-65
2021/03/21 02:41:29;;;;;;;4.47;2.63;;;;;;;;;;4994422;28;20038;-65
2021/03/21 02:43:57;;;;;;;4.63;2.17;;;;;;;;;;4994511;28;20485;-65
2021/03/21 02:46:34;;;;;;;5.32;2.25;;;;;;;;;;4994255;28;20089;-65
2021/03/21 02:49:06;;;;;;;3.08;1.98;;;;;;;;;;4994457;28;20500;-65
2021/03/21 02:51:34;;;;;;;9.23;3.88;;;;;;;;;;4992830;28;20143;-65
2021/03/21 02:54:03;;;;;;;4.13;2.10;;;;;;;;;;4994083;28;20022;-64
2021/03/21 02:56:30;;;;;;;3.10;1.60;;;;;;;;;;4991834;28;20057;-65
2021/03/21 02:59:04;;;;;;;5.18;2.13;;;;;;;;;;4994209;28;20025;-65
2021/03/21 03:01:33;;;;;;;5.32;2.30;;;;;;;;;;4993538;28;20050;-65
2021/03/21 03:04:00;;;;;;;7.38;2.28;;;;;;;;;;4992221;28;20787;-65
2021/03/21 03:06:29;;;;;;;14.93;2.83;;;;;;;;;;4988311;28;20031;-65
2021/03/21 03:08:58;;;;;;;8.60;2.42;;;;;;;;;;4994026;28;20018;-66
2021/03/21 03:11:32;;;;;;;7.43;2.63;;;;;;;;;;4993792;28;20085;-65
2021/03/21 03:13:59;;;;;;;7.00;3.88;;;;;;;;;;4993908;28;20080;-65
2021/03/21 03:16:26;;;;;;;5.30;1.90;;;;;;;;;;4993660;28;20449;-65
2021/03/21 03:19:05;;;;;;;5.32;1.90;;;;;;;;;;4988897;28;20018;-65
2021/03/21 03:21:33;;;;;;;5.18;2.22;;;;;;;;;;4993693;28;20027;-65
2021/03/21 03:24:10;;;;;;;4.38;2.70;;;;;;;;;;4993650;28;20069;-65
2021/03/21 03:26:54;;;;;;;3.35;2.08;;;;;;;;;;4989702;28;20026;-66
2021/03/21 03:29:24;;;;;;;6.90;1.70;;;;;;;;;;4975230;28;20117;-66
2021/03/21 03:31:51;;;;;;;5.35;2.17;;;;;;;;;;4987650;28;20046;-65
2021/03/21 03:34:16;;;;;;;2.30;1.13;;;;;;;;;;4991043;28;20422;-65
2021/03/21 03:36:42;;;;;;;14.48;3.75;;;;;;;;;;4990878;28;20061;-66
2021/03/21 03:39:07;;;;;;;12.55;4.78;;;;;;;;;;4993551;28;20048;-66
2021/03/21 03:41:37;;;;;;;8.18;3.83;;;;;;;;;;4993301;28;20022;-66
2021/03/21 03:44:02;;;;;;;6.97;2.33;;;;;;;;;;4993222;28;20022;-65
2021/03/21 03:46:33;;;;;;;2.92;1.52;;;;;;;;;;4991769;28;20515;-65
2021/03/21 03:49:06;;;;;;;3.17;1.98;;;;;;;;;;4991805;28;20070;-65
2021/03/21 03:51:55;;;;;;;8.75;2.78;;;;;;;;;;4993243;28;20504;-65
2021/03/21 03:54:20;;;;;;;8.85;3.65;;;;;;;;;;4983837;28;20033;-65
2021/03/21 03:56:50;;;;;;;11.30;2.67;;;;;;;;;;4993142;28;20035;-66
2021/03/21 03:59:26;;;;;;;11.25;4.47;;;;;;;;;;4993144;28;20018;-65
2021/03/21 04:02:02;;;;;;;11.82;3.67;;;;;;;;;;4987742;28;20050;-66
2021/03/21 04:04:46;;;;;;;5.15;2.75;;;;;;;;;;4993222;28;20083;-65
2021/03/21 04:07:17;;;;;;;4.43;2.03;;;;;;;;;;4992918;28;20030;-65
2021/03/21 04:09:53;;;;;;;12.60;2.38;;;;;;;;;;4990573;28;20037;-65
2021/03/21 04:12:39;;;;;;;10.38;3.25;;;;;;;;;;4972835;28;20046;-65
2021/03/21 04:15:08;;;;;;;8.15;3.55;;;;;;;;;;4962983;28;20034;-65
2021/03/21 04:17:39;;;;;;;11.00;3.45;;;;;;;;;;4992912;28;20022;-65
2021/03/21 04:20:14;;;;;;;14.57;3.13;;;;;;;;;;4993060;28;20157;-65
2021/03/21 04:22:44;;;;;;;6.88;3.42;;;;;;;;;;4990341;28;20461;-65
2021/03/21 04:25:14;;;;;;;3.90;2.70;;;;;;;;;;4991783;28;20022;-65
2021/03/21 04:27:45;;;;;;;8.30;2.28;;;;;;;;;;4988643;28;20030;-66
2021/03/21 04:30:37;;;;;;;5.05;1.38;;;;;;;;;;4990506;28;20026;-66
2021/03/21 04:33:02;;;;;;;;;;;;;;;;;;4990086;28;20035;-65
2021/03/21 04:35:32;;;;;;;14.40;3.03;;;;;;;;;;4992940;28;19918;-66
2021/03/21 04:38:00;;;;;;;13.15;4.47;;;;;;;;;;4991534;28;20742;-66
2021/03/21 04:40:27;;;;;;;3.25;2.08;;;;;;;;;;4993706;28;20022;-66
2021/03/21 04:42:57;;;;;;;4.28;1.92;;;;;;;;;;4996722;28;20109;-65
2021/03/21 04:45:25;;;;;;;9.30;4.20;;;;;;;;;;4996846;28;20022;-65
2021/03/21 04:47:59;;;;;;;8.52;2.00;;;;;;;;;;4996619;28;20377;-65
2021/03/21 04:50:25;;;;;;;4.70;2.25;;;;;;;;;;4996729;28;20054;-66
2021/03/21 04:53:08;;;;;;;5.53;3.22;;;;;;;;;;4996684;28;20072;-65
2021/03/21 04:55:41;;;;;;;9.25;2.63;;;;;;;;;;4996603;28;20018;-65
2021/03/21 04:58:14;;;;;;;6.20;3.10;;;;;;;;;;4996698;28;20073;-67
2021/03/21 05:00:42;;;;;;;8.77;3.33;;;;;;;;;;4992873;28;20136;-65
2021/03/21 05:03:20;;;;;;;15.70;3.80;;;;;;;;;;4993692;28;20058;-66
2021/03/21 05:05:49;;;;;;;3.90;1.20;;;;;;;;;;4994150;28;20033;-66
2021/03/21 05:08:25;;;;;;;9.63;3.50;;;;;;;;;;4996209;28;20406;-66
2021/03/21 05:10:52;;;;;;;6.07;2.30;;;;;;;;;;4996698;28;20033;-66
2021/03/21 05:13:20;;;;;;;10.88;3.08;;;;;;;;;;4996124;28;20040;-66
2021/03/21 05:15:50;;;;;;;11.20;3.05;;;;;;;;;;4996492;28;20366;-66
2021/03/21 05:18:24;;;;;;;5.65;2.25;;;;;;;;;;4990743;28;20025;-65
2021/03/21 05:21:02;;;;;;;6.30;2.70;;;;;;;;;;4996371;28;20484;-66
2021/03/21 05:23:34;;;;;;;10.18;3.08;;;;;;;;;;4996113;28;20049;-66
2021/03/21 05:26:12;;;;;;;7.30;3.40;;;;;;;;;;4996265;28;20027;-66
2021/03/21 05:28:52;;;;;;;15.48;4.20;;;;;;;;;;4992372;28;20484;-66
2021/03/21 05:31:18;;;;;;;6.93;2.95;;;;;;;;;;4996227;28;20141;-67
2021/03/21 05:33:44;;;;;;;13.38;3.65;;;;;;;;;;4995693;28;20117;-66
2021/03/21 05:36:24;;;;;;;4.68;2.90;;;;;;;;;;4990154;28;20026;-67
2021/03/21 05:38:54;;;;;;;7.00;2.58;;;;;;;;;;4980476;28;20468;-66
2021/03/21 05:41:29;;;;;;;7.20;3.15;;;;;;;;;;4996127;28;20037;-65
2021/03/21 05:44:13;;;;;;;4.15;2.90;;;;;;;;;;4995567;28;20026;-66
2021/03/21 05:46:41;;;;;;;7.88;3.53;;;;;;;;;;4995536;28;20039;-66
2021/03/21 05:49:24;;;;;;;9.38;2.72;;;;;;;;;;4995498;28;20428;-66
2021/03/21 05:52:02;;;;;;;11.52;4.03;;;;;;;;;;4992138;28;20035;-67
2021/03/21 05:54:27;;;;;;;11.55;2.88;;;;;;;;;;4995360;28;20030;-65
2021/03/21 05:57:04;;;;;;;7.78;4.20;;;;;;;;;;4990675;28;20482;-66
2021/03/21 05:59:45;;;;;;;5.82;3.35;;;;;;;;;;4976520;28;20030;-66
2021/03/21 06:02:32;;;;;;;7.25;4.80;;;;;;;;;;4995018;28;20121;-66
2021/03/21 06:04:57;;;;;;;9.40;3.35;;;;;;;;;;4994144;28;20350;-66
2021/03/21 06:07:31;;;;;;;4.82;2.22;;;;;;;;;;4995115;28;20049;-66
2021/03/21 06:09:56;;;;;;;9.68;2.90;;;;;;;;;;4993865;28;20512;-66
2021/03/21 06:12:25;;;;;;;17.27;3.20;;;;;;;;;;4994982;28;20109;-66
2021/03/21 06:14:59;;;;;;;12.85;2.80;;;;;;;;;;4974981;28;20026;-66
2021/03/21 06:17:36;;;;;;;7.00;3.60;;;;;;;;;;4994856;28;20133;-66
2021/03/21 06:20:07;;;;;;;6.68;2.13;;;;;;;;;;4995045;28;20381;-66
2021/03/21 06:22:38;;;;;;;14.05;3.55;;;;;;;;;;4994927;28;20480;-66
2021/03/21 06:25:12;;;;;;;4.13;2.75;;;;;;;;;;4992485;28;20058;-65
2021/03/21 06:27:56;;;;;;;12.63;3.50;;;;;;;;;;4994769;28;20440;-66
2021/03/21 06:30:40;;;;;;;7.72;3.47;;;;;;;;;;4994829;28;20030;-67
2021/03/21 06:36:22;;;;;;;11.07;4.28;;;;;;;;;;4991514;28;20516;-66
2021/03/21 06:39:00;;;;;;;6.03;2.63;;;;;;;;;;4984820;28;20026;-66
2021/03/21 06:41:35;;;;;;;4.60;2.58;;;;;;;;;;4974217;28;20022;-65
2021/03/21 06:44:19;;;;;;;9.32;2.08;;;;;;;;;;4994336;28;20018;-65
2021/03/21 06:46:50;;;;;;;13.32;2.03;;;;;;;;;;4994397;28;20028;-66
2021/03/21 06:49:30;;;;;;;6.97;3.33;;;;;;;;;;4989085;28;20026;-66
2021/03/21 06:52:00;;;;;;;9.85;3.17;;;;;;;;;;4993082;28;20034;-67
2021/03/21 06:54:44;;;;;;;9.05;3.10;;;;;;;;;;4986782;28;20045;-66
2021/03/21 06:57:21;;;;;;;7.53;2.65;;;;;;;;;;4992768;28;20026;-66
2021/03/21 07:00:10;;;;;;;4.32;2.75;;;;;;;;;;4994337;28;20026;-65
2021/03/21 07:02:38;;;;;;;11.38;6.07;;;;;;;;;;4994033;28;20092;-66
2021/03/21 07:05:03;;;;;;;14.07;7.47;;;;;;;;;;4994167;28;20022;-66
2021/03/21 07:07:47;;;;;;;14.10;6.72;;;;;;;;;;4991413;28;20469;-66
2021/03/21 07:10:35;;;;;;;14.18;8.27;;;;;;;;;;4991287;28;20061;-65
2021/03/21 07:13:09;;;;;;;19.92;7.18;;;;;;;;;;4991538;28;20038;-65
2021/03/21 07:15:35;;;;;;;8.48;5.47;;;;;;;;;;4974653;28;20030;-65
2021/03/21 07:18:18;;;;;;;9.45;2.92;;;;;;;;;;4986546;28;20073;-66
2021/03/21 07:20:44;;;;;;;13.70;3.05;;;;;;;;;;4994072;28;20054;-66
2021/03/21 07:23:27;;;;;;;11.32;2.83;;;;;;;;;;4988283;28;20057;-66
2021/03/21 07:26:11;;;;;;;4.18;2.85;;;;;;;;;;4988886;28;20049;-66
2021/03/21 07:29:02;;;;;;;12.65;2.72;;;;;;;;;;4993585;28;20069;-65
2021/03/21 07:31:41;;;;;;;4.38;2.97;;;;;;;;;;4967356;28;20165;-66
2021/03/21 07:34:09;;;;;;;1.88;1.67;;;;;;;;;;4993707;28;20041;-65
2021/03/21 07:36:53;;;;;;;7.07;2.97;;;;;;;;;;4993416;28;20384;-66
2021/03/21 07:39:54;;;;;;;6.20;3.13;;;;;;;;;;4993581;28;20377;-65
2021/03/21 07:42:27;;;;;;;5.45;3.15;;;;;;;;;;4929008;29;20066;-65
2021/03/21 07:45:16;;;;;;;8.52;2.72;;;;;;;;;;4984499;28;20086;-66
2021/03/21 07:47:42;;;;;;;10.60;2.78;;;;;;;;;;4991302;28;20026;-63
2021/03/21 07:50:25;;;;;;;7.38;2.88;;;;;;;;;;4992004;28;20376;-64
2021/03/21 07:53:01;;;;;;;8.65;2.95;;;;;;;;;;4991822;28;20373;-64
2021/03/21 07:55:30;;;;;;;6.63;2.00;;;;;;;;;;4990416;28;20035;-65
2021/03/21 07:58:14;;;;;;;6.07;2.15;;;;;;;;;;4991560;28;20057;-63
2021/03/21 08:00:39;;;;;;;3.67;2.75;;;;;;;;;;4986284;28;20042;-65
2021/03/21 08:03:16;;;;;;;14.57;4.13;;;;;;;;;;4974034;28;20069;-64
2021/03/21 08:05:42;;;;;;;8.10;4.93;;;;;;;;;;4987466;28;20026;-64
2021/03/21 08:08:13;;;;;;;10.38;5.47;;;;;;;;;;4979918;28;20057;-60
2021/03/21 08:10:39;;;;;;;7.65;4.00;;;;;;;;;;4986624;28;20110;-60
2021/03/21 08:13:07;;;;;;;15.95;3.92;;;;;;;;;;4990659;28;20062;-60
2021/03/21 08:15:35;;;;;;;18.75;4.00;;;;;;;;;;4986078;28;20023;-59
2021/03/21 08:18:04;;;;;;;10.18;3.08;;;;;;;;;;4992320;28;20373;-59
2021/03/21 08:20:35;;;;;;;21.80;6.03;;;;;;;;;;4992661;28;20991;-60
2021/03/21 08:23:09;;;;;;;6.53;4.20;;;;;;;;;;4992176;28;20054;-59
2021/03/21 08:25:36;;;;;;;9.30;5.60;;;;;;;;;;4991057;28;20034;-59
2021/03/21 08:28:02;;;;;;;10.95;5.95;;;;;;;;;;4991444;28;20113;-64
2021/03/21 08:30:43;;;;;;;9.35;3.42;;;;;;;;;;4991604;28;20109;-62
2021/03/21 08:33:08;;;;;;;;;;;;;;;;;;4987797;28;20485;-63
2021/03/21 08:35:34;;;;;;;12.23;4.32;;;;;;;;;;4991428;28;19921;-64
2021/03/21 08:38:16;;;;;;;4.38;2.90;;;;;;;;;;4991465;28;20101;-64
2021/03/21 08:40:42;;;;;;;6.63;2.75;;;;;;;;;;4990537;28;20018;-63
2021/03/21 08:43:08;;;;;;;8.13;4.00;;;;;;;;;;4991212;28;20037;-63
2021/03/21 08:45:36;;;;;;;10.02;3.60;;;;;;;;;;4988713;28;20022;-64
2021/03/21 08:48:13;;;;;;;7.78;4.80;;;;;;;;;;4990917;28;20033;-63
2021/03/21 08:50:40;;;;;;;7.18;3.63;;;;;;;;;;4991442;28;20085;-63
2021/03/21 08:53:21;;;;;;;7.30;3.97;;;;;;;;;;4991637;28;20027;-59
2021/03/21 08:55:46;;;;;;;8.50;5.10;;;;;;;;;;4985203;28;20457;-59
2021/03/21 08:58:24;;;;;;;22.55;6.85;;;;;;;;;;4991638;28;20037;-60
2021/03/21 09:00:49;;;;;;;6.28;4.25;;;;;;;;;;4991419;28;20042;-59
2021/03/21 09:03:44;;;;;;;5.38;3.30;;;;;;;;;;4991692;28;20021;-59
2021/03/21 09:06:26;;;;;;;7.25;3.58;;;;;;;;;;4979275;28;20431;-60
2021/03/21 09:08:52;;;;;;;11.52;3.15;;;;;;;;;;4991657;28;20026;-59
2021/03/21 09:11:31;;;;;;;5.97;2.60;;;;;;;;;;4992236;28;20023;-60
2021/03/21 09:14:00;;;;;;;18.50;5.28;;;;;;;;;;4991578;28;20049;-60
2021/03/21 09:16:25;;;;;;;4.53;2.85;;;;;;;;;;4991888;28;20390;-59
2021/03/21 09:18:51;;;;;;;23.73;20.90;;;;;;;;;;4991581;28;20022;-59
2021/03/21 09:21:16;;;;;;;13.85;9.38;;;;;;;;;;4969107;28;20113;-58
2021/03/21 09:24:12;;;;;;;22.60;17.13;;;;;;;;;;4988809;28;20031;-59
2021/03/21 09:26:39;;;;;;;8.25;7.30;;;;;;;;;;4975312;28;20042;-60
2021/03/21 09:29:15;;;;;;;15.98;6.80;;;;;;;;;;4986697;28;20019;-59
2021/03/21 09:31:41;;;;;;;8.98;6.13;;;;;;;;;;4995349;28;20026;-59
2021/03/21 09:34:09;;;;;;;19.23;5.35;;;;;;;;;;4971290;28;20034;-59
2021/03/21 09:36:38;;;;;;;6.93;4.65;;;;;;;;;;4993338;28;20532;-59
2021/03/21 09:39:10;;;;;;;15.55;9.95;;;;;;;;;;4991403;28;20045;-59
2021/03/21 09:41:35;;;;;;;15.25;5.90;;;;;;;;;;4995311;28;20105;-59
2021/03/21 09:44:03;;;;;;;24.70;9.88;;;;;;;;;;4994748;28;20109;-59
2021/03/21 09:46:28;;;;;;;17.42;8.45;;;;;;;;;;4995023;28;20027;-59
2021/03/21 09:49:06;;;;;;;10.95;6.03;;;;;;;;;;4976890;28;20117;-59
2021/03/21 09:51:41;;;;;;;11.32;7.45;;;;;;;;;;4986647;28;20122;-59
2021/03/21 09:54:12;;;;;;;9.63;5.18;;;;;;;;;;4989749;28;20056;-59
2021/03/21 09:56:37;;;;;;;;;;;;;;;;;;4992347;28;20031;-59
2021/03/21 09:59:03;;;;;;;5.82;3.22;;;;;;;;;;4990164;28;20270;-59
2021/03/21 10:01:28;;;;;;;9.15;5.18;;;;;;;;;;4986877;28;20055;-59
2021/03/21 10:03:58;;;;;;;11.10;7.78;;;;;;;;;;4992999;28;20057;-60
2021/03/21 10:06:25;;;;;;;6.75;5.88;;;;;;;;;;4987977;28;20034;-59
2021/03/21 10:09:12;;;;;;;10.68;4.45;;;;;;;;;;4986659;28;20018;-59
2021/03/21 10:11:39;;;;;;;4.70;4.25;;;;;;;;;;4988208;28;20031;-59
2021/03/21 10:14:23;;;;;;;12.52;10.55;;;;;;;;;;4991132;28;20465;-59
2021/03/21 10:16:55;;;;;;;9.77;6.88;;;;;;;;;;4993039;28;20033;-59
2021/03/21 10:19:46;;;;;;;7.82;4.38;;;;;;;;;;4991037;28;20018;-59
2021/03/21 10:22:18;;;;;;;6.95;5.07;;;;;;;;;;4988116;28;20043;-59
2021/03/21 10:24:44;;;;;;;8.25;6.32;;;;;;;;;;4990137;28;20030;-59
2021/03/21 10:27:23;;;;;;;13.63;7.05;;;;;;;;;;4989391;28;20062;-58
2021/03/21 10:30:03;;;;;;;13.93;6.22;;;;;;;;;;4993344;28;20037;-59
2021/03/21 10:32:30;;;;;;;9.18;6.63;;;;;;;;;;4990309;28;20058;-58
2021/03/21 10:34:55;;;;;;;21.27;8.98;;;;;;;;;;4987683;28;20133;-59
2021/03/21 10:37:50;;;;;;;11.52;7.97;;;;;;;;;;4985637;28;20532;-59
2021/03/21 10:40:24;;;;;;;9.55;5.40;;;;;;;;;;4930745;28;20031;-57
2021/03/21 10:43:09;;;;;;;12.85;8.20;;;;;;;;;;4983773;28;20528;-58
2021/03/21 10:45:34;;;;;;;24.20;6.68;;;;;;;;;;4985370;28;20127;-58
2021/03/21 10:48:05;;;;;;;98.78;54.83;;;;;;;;;;4984982;28;20018;-58
2021/03/21 10:50:30;;;;;;;84.00;75.68;;;;;;;;;;4982256;28;20023;-66
2021/03/21 10:53:18;;;;;;;21.70;19.48;;;;;;;;;;4980555;28;20031;-66
2021/03/21 10:56:02;;;;;;;25.92;16.85;;;;;;;;;;4987309;28;20034;-67
2021/03/21 10:58:33;;;;;;;19.83;14.00;;;;;;;;;;4986085;28;20109;-67
2021/03/21 11:01:19;;;;;;;11.48;9.75;;;;;;;;;;4986472;28;20047;-67
2021/03/21 11:03:57;;;;;;;12.25;11.15;;;;;;;;;;4982056;28;20042;-67
2021/03/21 11:06:23;;;;;;;13.85;12.02;;;;;;;;;;4986010;28;20053;-67
2021/03/21 11:08:49;;;;;;;14.48;10.93;;;;;;;;;;4988979;28;20473;-67
2021/03/21 11:11:17;;;;;;;14.43;10.15;;;;;;;;;;4989950;28;20030;-67
2021/03/21 11:13:43;;;;;;;15.60;12.52;;;;;;;;;;4989312;28;20045;-67
2021/03/21 11:16:12;;;;;;;12.70;10.90;;;;;;;;;;4989750;28;20038;-67
2021/03/21 11:18:38;;;;;;;11.82;7.80;;;;;;;;;;4989286;28;20061;-67
2021/03/21 11:21:03;;;;;;;9.85;9.05;;;;;;;;;;4987293;28;20018;-67
2021/03/21 11:23:29;;;;;;;15.25;8.60;;;;;;;;;;4968108;28;20422;-67
2021/03/21 11:25:54;;;;;;;10.82;6.47;;;;;;;;;;4979278;28;20033;-67
2021/03/21 11:28:27;;;;;;;11.88;3.35;;;;;;;;;;4987658;28;20053;-66
2021/03/21 11:30:58;;;;;;;4.75;3.33;;;;;;;;;;4987863;28;20108;-66
2021/03/21 11:33:34;;;;;;;6.20;4.60;;;;;;;;;;4986741;28;20034;-66
2021/03/21 11:36:10;;;;;;;6.40;4.05;;;;;;;;;;4985763;28;20038;-66
2021/03/21 11:38:38;;;;;;;5.70;4.00;;;;;;;;;;4987118;28;20389;-66
2021/03/21 11:41:04;;;;;;;6.07;3.28;;;;;;;;;;4971269;28;20048;-67
2021/03/21 11:43:30;;;;;;;11.07;5.45;;;;;;;;;;4987488;28;20030;-67
2021/03/21 11:46:10;;;;;;;6.90;3.75;;;;;;;;;;4986518;28;20038;-67
2021/03/21 11:48:36;;;;;;;13.52;5.20;;;;;;;;;;4985252;28;20084;-67
2021/03/21 11:51:02;;;;;;;13.38;4.28;;;;;;;;;;4978024;28;20034;-68
2021/03/21 11:53:35;;;;;;;5.45;3.47;;;;;;;;;;4975284;28;20026;-68
2021/03/21 11:56:06;;;;;;;9.15;6.47;;;;;;;;;;4974678;28;20027;-68
2021/03/21 11:58:35;;;;;;;8.70;4.13;;;;;;;;;;4974269;28;20092;-67
2021/03/21 12:01:18;;;;;;;7.70;3.28;;;;;;;;;;4971801;28;21149;-68
2021/03/21 12:04:03;;;;;;;2.90;1.75;;;;;;;;;;4954493;28;20071;-68
2021/03/21 12:06:38;;;;;;;8.10;3.10;;;;;;;;;;4972954;28;20027;-66
2021/03/21 12:09:33;;;;;;;7.57;5.18;;;;;;;;;;4985920;28;20026;-67
2021/03/21 12:12:01;;;;;;;12.35;2.72;;;;;;;;;;4975613;28;20129;-66
2021/03/21 12:14:32;;;;;;;4.78;3.65;;;;;;;;;;4979747;28;20022;-69
2021/03/21 12:16:59;;;;;;;11.13;4.00;;;;;;;;;;4988560;28;20038;-67
2021/03/21 12:19:24;;;;;;;4.28;2.50;;;;;;;;;;4987104;28;20446;-66
2021/03/21 12:21:54;;;;;;;5.90;4.88;;;;;;;;;;4985442;28;20077;-67
2021/03/21 12:24:20;;;;;;;7.53;2.53;;;;;;;;;;4976130;28;20647;-67
2021/03/21 12:26:50;;;;;;;13.20;4.32;;;;;;;;;;4970840;28;20054;-67
2021/03/21 12:29:22;;;;;;;5.07;3.63;;;;;;;;;;4970898;28;20033;-67
2021/03/21 12:31:47;;;;;;;;;;;;;;;;;;4973343;28;20509;-67
2021/03/21 12:34:27;;;;;;;15.02;11.15;;;;;;;;;;4987186;28;19956;-67
2021/03/21 12:37:10;;;;;;;5.00;3.87;;;;;;;;;;4982888;28;20040;-66
2021/03/21 12:39:37;;;;;;;7.25;3.20;;;;;;;;;;4985338;28;20157;-67
2021/03/21 12:42:02;;;;;;;5.82;2.70;;;;;;;;;;4988209;28;20177;-67
2021/03/21 12:44:28;;;;;;;8.93;5.30;;;;;;;;;;4987687;28;20531;-68
2021/03/21 12:46:56;;;;;;;13.10;4.97;;;;;;;;;;4985528;28;20632;-67
2021/03/21 12:49:27;;;;;;;4.85;3.40;;;;;;;;;;4987992;28;20053;-69
2021/03/21 12:51:53;;;;;;;;;;;;;;;;;;4987655;28;20429;-70
2021/03/21 12:54:18;;;;;;;3.60;3.13;;;;;;;;;;4985736;28;19910;-67
2021/03/21 12:56:43;;;;;;;5.90;3.42;;;;;;;;;;4983689;28;20030;-67
2021/03/21 12:59:08;;;;;;;4.57;3.10;;;;;;;;;;4984852;28;20098;-67
2021/03/21 13:01:34;;;;;;;9.10;2.95;;;;;;;;;;4982594;28;20846;-67
2021/03/21 13:03:59;;;;;;;3.53;3.05;;;;;;;;;;4988444;28;20034;-68
2021/03/21 13:06:24;;;;;;;4.95;2.33;;;;;;;;;;4993671;28;20555;-67
2021/03/21 13:08:49;;;;;;;9.52;2.35;;;;;;;;;;4995077;28;20022;-67
2021/03/21 13:11:15;;;;;;;14.43;3.92;;;;;;;;;;4993012;28;20494;-66
2021/03/21 13:13:40;;;;;;;8.68;2.63;;;;;;;;;;4994584;28;20030;-67
2021/03/21 13:16:06;;;;;;;3.70;2.42;;;;;;;;;;4994531;28;20656;-67
2021/03/21 13:18:31;;;;;;;4.57;2.97;;;;;;;;;;4993028;28;20026;-66
2021/03/21 13:20:58;;;;;;;6.03;4.03;;;;;;;;;;4986794;28;20420;-67
2021/03/21 13:23:24;;;;;;;10.10;2.47;;;;;;;;;;4988135;28;20035;-66
2021/03/21 13:25:50;;;;;;;6.93;3.78;;;;;;;;;;4993967;28;20077;-66
2021/03/21 13:28:15;;;;;;;5.93;2.53;;;;;;;;;;4989420;28;20088;-67
2021/03/21 13:30:42;;;;;;;9.35;4.43;;;;;;;;;;4988824;28;20034;-66
2021/03/21 13:33:17;;;;;;;10.73;4.82;;;;;;;;;;4991766;28;20795;-67
2021/03/21 13:35:42;;;;;;;4.00;2.55;;;;;;;;;;4993808;28;20023;-66
2021/03/21 13:38:09;;;;;;;2.67;2.15;;;;;;;;;;4993537;28;20038;-66
2021/03/21 13:40:40;;;;;;;3.83;2.80;;;;;;;;;;4993263;28;20039;-66
2021/03/21 13:43:07;;;;;;;7.10;5.70;;;;;;;;;;4993318;28;20018;-66
2021/03/21 13:45:33;;;;;;;4.75;3.05;;;;;;;;;;4993730;28;20413;-66
2021/03/21 13:47:58;;;;;;;6.13;4.30;;;;;;;;;;4990277;28;20482;-66
2021/03/21 13:50:24;;;;;;;2.35;1.70;;;;;;;;;;4992711;28;20041;-66
2021/03/21 13:52:49;;;;;;;10.52;5.45;;;;;;;;;;4981487;28;20449;-67
2021/03/21 13:55:32;;;;;;;5.43;4.82;;;;;;;;;;4990912;28;20026;-67
2021/03/21 13:57:59;;;;;;;5.30;3.45;;;;;;;;;;4990950;28;20034;-67
2021/03/21 14:00:24;;;;;;;3.83;3.17;;;;;;;;;;4990710;28;20037;-67
2021/03/21 14:02:50;;;;;;;4.10;2.45;;;;;;;;;;4989533;28;20030;-67
2021/03/21 14:05:15;;;;;;;7.38;4.22;;;;;;;;;;4986531;28;20128;-67
2021/03/21 14:07:41;;;;;;;4.32;3.53;;;;;;;;;;4990623;28;20533;-67
2021/03/21 14:10:07;;;;;;;3.65;2.30;;;;;;;;;;4985132;28;20061;-68
2021/03/21 14:12:32;;;;;;;6.10;3.83;;;;;;;;;;4989004;28;20222;-68
2021/03/21 14:14:57;;;;;;;5.72;3.28;;;;;;;;;;4990046;28;20069;-68
2021/03/21 14:17:23;;;;;;;7.22;4.57;;;;;;;;;;4991107;28;20031;-67
2021/03/21 14:19:48;;;;;;;4.35;3.60;;;;;;;;;;4991930;28;20027;-67
2021/03/21 14:22:14;;;;;;;10.57;4.88;;;;;;;;;;4991205;28;20041;-66
2021/03/21 14:24:39;;;;;;;7.70;5.30;;;;;;;;;;4993053;28;20026;-67
2021/03/21 14:27:05;;;;;;;5.25;3.72;;;;;;;;;;4989090;28;20117;-66
2021/03/21 14:29:30;;;;;;;13.98;4.10;;;;;;;;;;4992887;28;20026;-67
2021/03/21 14:31:56;;;;;;;4.68;2.42;;;;;;;;;;4992858;28;20409;-67
2021/03/21 14:34:22;;;;;;;4.95;2.45;;;;;;;;;;4992670;28;20031;-68
2021/03/21 14:36:47;;;;;;;6.70;3.67;;;;;;;;;;4991485;28;20032;-67
2021/03/21 14:39:13;;;;;;;7.75;3.65;;;;;;;;;;4992150;28;20027;-67
2021/03/21 14:41:38;;;;;;;4.53;3.42;;;;;;;;;;4992455;28;20060;-66
2021/03/21 14:44:03;;;;;;;6.93;3.17;;;;;;;;;;4991410;28;20114;-66
2021/03/21 14:46:29;;;;;;;5.53;3.28;;;;;;;;;;4992166;28;20042;-67
2021/03/21 14:48:54;;;;;;;22.45;4.90;;;;;;;;;;4992011;28;20166;-67
2021/03/21 14:51:19;;;;;;;76.22;50.20;;;;;;;;;;4990889;28;20473;-67
2021/03/21 14:53:45;;;;;;;42.10;28.45;;;;;;;;;;4987711;28;20034;-67
2021/03/21 14:56:10;;;;;;;15.63;9.55;;;;;;;;;;4984263;28;20034;-67
2021/03/21 14:58:35;;;;;;;4.88;3.90;;;;;;;;;;4985228;28;20054;-70
2021/03/21 15:01:04;;;;;;;110.45;100.30;;;;;;;;;;4987839;28;21094;-67
2021/03/21 15:03:29;;;;;;;14.70;10.98;;;;;;;;;;4989630;28;20106;-67